Etusivu
METAR-TAF:

METAR-TAF

Lentoasemat :

Swift Current, Saskatchewan, Kanada

Leveyspiiri: 50-17N, Pituuspiiri: 107-41W, korkeus merenpinnasta: 818 m

Tämänhetkinen sää

Tämä raportti tehtiin 48 minuuttia sitten, kello 13.00 UTC
Tuuli 16 kn lännestä/luoteesta puuskistuen 22 kn:hen
Lämpötila 0°C
Kosteus 47%
Ilmanpaine 1022 hPa
Näkyvyys: 14.5 km
selkeää

METAR: CYYN 251300Z AUTO 29016G22KT 9SM CLR M00/M10 A3017 RMK SLP239

Aika: 07:48 (13:48 UTC)

Sääennuste

Tämä raportti tehtiin 2 tuntia ja 10 minuuttia sitten, kello 11.38 UTC
Ennuste voimassa 25. päivästä klo 12 UTC - 25. päivään klo 24 UTC
Tuuli 12 kn lännestä
Näkyvyys: 10 km
selkeää
Tulossa
25. päivästä klo 13 UTC - 25. päivään klo 15 UTC
Tuuli 20 kn lännestä/luoteesta puuskistuen 30 kn:hen
Tulossa
25. päivästä klo 22 UTC - 25. päivään klo 24 UTC
Tuuli 15 kn lännestä

TAF: CYYN 251138Z 2512/2524 27012KT P6SM SKC BECMG 2513/2515 29020G30KT BECMG 2522/2524 28015KT RMK FCST BASED ON AUTO OBS. NXT FCST BY 251800Z

Säähavainnot ja -ennusteet yli 4000 lentoasemalta (METAR- ja TAF-raportit).

Käytössä olevat sääasemat on merkitty karttaan keltaisilla ja punaisilla pisteillä.

Aseta hiiri pisteen päälle nähdäksesi sääaseman nimen.

Klikkaa sitten nähdäksesi säähavainnot ja -ennusteet.

Kartan vaihtaminen: klikkaa mustalla rastilla varustettuja vihreitä pisteitä, niin voit zoomata sisään; viivalla varustettua vihreää pistettä, niin voit zoomata ulos tai vihreitä nuolia, niin pääset viereisille kartoille.


METAR-TAF: